createdAt,value
2023-02-21T00:00:52.359Z,14.37
2023-02-21T00:03:34.861Z,7.50
2023-02-21T00:06:17.449Z,8.53
2023-02-21T00:09:02.568Z,10.47
2023-02-21T00:11:44.979Z,8.70
2023-02-21T00:14:27.436Z,9.20
2023-02-21T00:17:09.867Z,10.37
2023-02-21T00:19:52.402Z,11.00
2023-02-21T00:22:34.947Z,7.90
2023-02-21T00:25:20.846Z,10.40
2023-02-21T00:28:03.270Z,14.80
2023-02-21T00:30:46.450Z,9.90
2023-02-21T00:33:29.042Z,6.63
2023-02-21T00:36:11.625Z,14.43
2023-02-21T00:38:54.086Z,10.53
2023-02-21T00:41:39.898Z,15.60
2023-02-21T00:44:22.371Z,15.83
2023-02-21T00:47:05.021Z,11.30
2023-02-21T00:49:47.444Z,8.67
2023-02-21T00:52:29.898Z,14.17
2023-02-21T00:55:12.374Z,10.97
2023-02-21T00:57:57.491Z,8.73
2023-02-21T01:00:41.113Z,8.00
2023-02-21T01:03:24.583Z,8.93
2023-02-21T01:06:09.099Z,8.20
2023-02-21T01:08:51.890Z,7.33
2023-02-21T01:11:37.179Z,15.70
2023-02-21T01:14:23.548Z,8.80
2023-02-21T01:17:12.748Z,9.53
2023-02-21T01:19:55.702Z,7.80
2023-02-21T01:22:38.256Z,12.20
2023-02-21T01:25:22.319Z,7.70
2023-02-21T01:28:04.774Z,8.90
2023-02-21T01:30:49.951Z,9.20
2023-02-21T01:33:32.469Z,8.53
2023-02-21T01:36:14.937Z,8.40
2023-02-21T01:38:57.666Z,8.57
2023-02-21T01:41:40.386Z,11.20
2023-02-21T01:44:48.750Z,10.63
2023-02-21T01:47:34.560Z,5.30
2023-02-21T01:50:22.613Z,6.40
2023-02-21T01:53:06.066Z,7.83
2023-02-21T01:55:49.793Z,7.67
2023-02-21T01:58:33.395Z,8.50
2023-02-21T02:01:16.156Z,9.57
2023-02-21T02:04:01.458Z,7.73
2023-02-21T02:06:44.407Z,10.73
2023-02-21T02:09:32.668Z,13.23
2023-02-21T02:12:45.168Z,16.33
2023-02-21T02:15:58.825Z,9.63
2023-02-21T02:18:58.878Z,9.93
2023-02-21T02:22:05.176Z,10.63
2023-02-21T02:25:03.180Z,11.60
2023-02-21T02:28:23.384Z,13.83
2023-02-21T02:31:21.244Z,9.70
2023-02-21T02:34:55.215Z,11.17
2023-02-21T02:37:34.195Z,10.13
2023-02-21T02:40:16.710Z,6.97
2023-02-21T02:43:12.820Z,11.60
2023-02-21T02:45:52.008Z,8.37
2023-02-21T02:48:30.068Z,10.17
2023-02-21T02:51:09.300Z,10.07
2023-02-21T02:53:39.473Z,7.93
2023-02-21T02:56:14.740Z,9.50
2023-02-21T02:58:52.004Z,16.13
2023-02-21T03:01:51.697Z,7.70
2023-02-21T03:04:54.965Z,7.93
2023-02-21T03:07:43.356Z,8.50
2023-02-21T03:10:24.207Z,9.53
2023-02-21T03:13:05.912Z,9.13
2023-02-21T03:15:50.028Z,11.13
2023-02-21T03:18:29.757Z,13.33
2023-02-21T03:21:04.000Z,8.63
2023-02-21T03:23:40.277Z,9.33
2023-02-21T03:26:14.853Z,12.13
2023-02-21T03:28:50.462Z,10.13
2023-02-21T03:31:29.151Z,16.40
2023-02-21T03:34:00.328Z,13.10
2023-02-21T03:36:31.900Z,10.23
2023-02-21T03:39:04.776Z,11.60
2023-02-21T03:41:35.524Z,8.93
2023-02-21T03:44:05.627Z,9.47
2023-02-21T03:46:39.871Z,11.30
2023-02-21T03:49:11.268Z,9.53
2023-02-21T03:51:41.571Z,10.20
2023-02-21T03:54:14.249Z,11.37
2023-02-21T03:56:47.895Z,10.17
2023-02-21T03:59:24.222Z,8.20
2023-02-21T04:01:54.437Z,9.20
2023-02-21T04:04:25.396Z,10.73
2023-02-21T04:07:04.362Z,10.40
2023-02-21T04:09:38.798Z,9.50
2023-02-21T04:12:11.119Z,9.90
2023-02-21T04:14:42.738Z,9.90
2023-02-21T04:17:12.816Z,11.50
2023-02-21T04:19:43.782Z,11.53
2023-02-21T04:22:13.936Z,9.10
2023-02-21T04:24:48.181Z,12.10
2023-02-21T04:27:19.683Z,10.03
2023-02-21T04:29:55.637Z,9.97
2023-02-21T04:32:25.910Z,12.40
2023-02-21T04:34:56.718Z,9.50
2023-02-21T04:37:27.082Z,10.60
2023-02-21T04:39:59.877Z,11.73
2023-02-21T04:42:30.005Z,15.33
2023-02-21T04:45:00.725Z,9.73
2023-02-21T04:47:32.040Z,10.63
2023-02-21T04:50:02.074Z,10.27
2023-02-21T04:52:32.232Z,11.13
2023-02-21T04:55:04.797Z,14.20
2023-02-21T04:57:35.202Z,11.80
2023-02-21T05:00:07.441Z,10.00
2023-02-21T05:02:37.679Z,11.03
2023-02-21T05:05:08.106Z,15.77
2023-02-21T05:07:38.177Z,24.73
2023-02-21T05:10:11.810Z,13.27
2023-02-21T05:12:42.277Z,15.27
2023-02-21T05:15:15.629Z,15.20
2023-02-21T05:17:46.395Z,12.87
2023-02-21T05:20:16.594Z,12.43
2023-02-21T05:22:46.556Z,14.83
2023-02-21T05:25:23.044Z,13.63
2023-02-21T05:27:55.137Z,10.93
2023-02-21T05:30:26.797Z,10.80
2023-02-21T05:32:56.850Z,12.90
2023-02-21T05:35:26.832Z,10.43
2023-02-21T05:37:56.802Z,11.63
2023-02-21T05:40:29.398Z,12.23
2023-02-21T05:42:59.406Z,10.30
2023-02-21T05:45:29.536Z,11.97
2023-02-21T05:48:00.724Z,10.70
2023-02-21T05:50:30.875Z,17.80
2023-02-21T05:53:02.684Z,10.93
2023-02-21T05:55:35.338Z,13.27
2023-02-21T05:58:05.358Z,13.07
2023-02-21T06:00:35.686Z,12.70
2023-02-21T06:03:05.798Z,16.20
2023-02-21T06:05:35.832Z,22.07
2023-02-21T06:08:06.686Z,10.60
2023-02-21T06:10:39.838Z,12.57
2023-02-21T06:13:09.836Z,14.60
2023-02-21T06:15:39.904Z,15.70
2023-02-21T06:18:09.904Z,13.90
2023-02-21T06:20:39.904Z,17.63
2023-02-21T06:23:09.870Z,10.70
2023-02-21T06:25:42.482Z,17.43
2023-02-21T06:28:12.517Z,10.50
2023-02-21T06:30:42.661Z,11.37
2023-02-21T06:33:12.830Z,12.27
2023-02-21T06:35:42.806Z,12.37
2023-02-21T06:38:12.758Z,11.37
2023-02-21T06:40:45.301Z,9.67
2023-02-21T06:43:15.232Z,10.10
2023-02-21T06:45:45.224Z,13.43
2023-02-21T06:48:18.112Z,10.90
2023-02-21T06:50:48.337Z,10.97
2023-02-21T06:53:18.306Z,11.20
2023-02-21T06:55:51.261Z,16.67
2023-02-21T06:58:21.264Z,7.93
2023-02-21T07:00:51.274Z,9.50
2023-02-21T07:03:21.282Z,13.33
2023-02-21T07:05:51.385Z,10.07
2023-02-21T07:08:21.802Z,13.90
2023-02-21T07:10:54.496Z,12.13
2023-02-21T07:13:24.655Z,10.47
2023-02-21T07:15:55.009Z,11.80
2023-02-21T07:18:24.994Z,12.30
2023-02-21T07:20:55.211Z,11.07
2023-02-21T07:23:25.235Z,9.70
2023-02-21T07:25:58.024Z,13.83
2023-02-21T07:28:28.024Z,8.33
2023-02-21T07:30:58.350Z,12.53
2023-02-21T07:33:28.416Z,8.63
2023-02-21T07:35:58.777Z,9.87
2023-02-21T07:38:32.574Z,12.60
2023-02-21T07:41:07.349Z,11.93
2023-02-21T07:43:37.345Z,12.73
2023-02-21T07:46:11.933Z,15.37
2023-02-21T07:48:42.014Z,10.40
2023-02-21T07:51:13.593Z,9.90
2023-02-21T07:53:43.994Z,8.57
2023-02-21T07:56:16.757Z,11.60
2023-02-21T07:58:46.710Z,10.10
2023-02-21T08:01:17.019Z,13.93
2023-02-21T08:03:47.168Z,15.93
2023-02-21T08:06:18.330Z,9.70
2023-02-21T08:08:48.648Z,10.33
2023-02-21T08:11:21.286Z,9.40
2023-02-21T08:13:51.433Z,7.43
2023-02-21T08:16:21.464Z,10.40
2023-02-21T08:18:52.463Z,7.53
2023-02-21T08:21:22.541Z,10.17
2023-02-21T08:23:56.213Z,9.03
2023-02-21T08:26:28.960Z,11.90
2023-02-21T08:28:58.963Z,11.00
2023-02-21T08:31:28.972Z,10.30
2023-02-21T08:33:59.015Z,10.57
2023-02-21T08:36:34.945Z,13.90
2023-02-21T08:39:05.271Z,11.00
2023-02-21T08:41:43.841Z,9.63
2023-02-21T08:44:16.626Z,10.73
2023-02-21T08:46:49.646Z,12.13
2023-02-21T08:49:19.980Z,15.63
2023-02-21T08:51:51.051Z,9.87
2023-02-21T08:54:21.104Z,11.07
2023-02-21T08:56:54.623Z,13.30
2023-02-21T08:59:24.609Z,13.23
2023-02-21T09:01:54.722Z,15.20
2023-02-21T09:04:24.807Z,8.40
2023-02-21T09:06:54.799Z,9.67
2023-02-21T09:09:24.898Z,11.10
2023-02-21T09:11:57.432Z,8.37
2023-02-21T09:14:27.422Z,15.90
2023-02-21T09:16:57.449Z,11.70
2023-02-21T09:19:27.417Z,13.07
2023-02-21T09:22:00.197Z,13.23
2023-02-21T09:24:31.894Z,10.80
2023-02-21T09:27:05.806Z,10.43
2023-02-21T09:29:45.882Z,19.00
2023-02-21T09:32:17.472Z,11.70
2023-02-21T09:34:47.807Z,11.30
2023-02-21T09:37:18.134Z,11.53
2023-02-21T09:39:48.099Z,11.67
2023-02-21T09:42:22.221Z,11.70
2023-02-21T09:44:52.351Z,13.73
2023-02-21T09:47:30.824Z,25.33
2023-02-21T09:50:05.977Z,9.80
2023-02-21T09:52:39.669Z,12.10
2023-02-21T09:55:18.039Z,10.87
2023-02-21T09:57:50.671Z,14.23
2023-02-21T10:00:25.274Z,9.90
2023-02-21T10:03:07.416Z,8.93
2023-02-21T10:05:48.273Z,11.60
2023-02-21T10:08:30.336Z,10.43
2023-02-21T10:11:10.550Z,11.20
2023-02-21T10:13:52.494Z,12.90
2023-02-21T10:16:31.859Z,11.00
2023-02-21T10:19:12.601Z,25.10
2023-02-21T10:21:48.533Z,12.37
2023-02-21T10:24:23.481Z,11.10
2023-02-21T10:27:02.422Z,8.27
2023-02-21T10:29:46.192Z,12.10
2023-02-21T10:32:17.229Z,16.20
2023-02-21T10:34:50.878Z,10.73
2023-02-21T10:37:40.810Z,13.80
2023-02-21T10:40:32.094Z,19.90
2023-02-21T10:43:10.872Z,8.23
2023-02-21T10:45:50.345Z,9.97
2023-02-21T10:48:22.985Z,11.40
2023-02-21T10:51:06.869Z,16.70
2023-02-21T10:53:39.435Z,9.73
2023-02-21T10:56:27.141Z,15.60
2023-02-21T10:59:05.471Z,12.90
2023-02-21T11:01:49.379Z,13.57
2023-02-21T11:04:34.940Z,10.00
2023-02-21T11:07:10.859Z,9.90
2023-02-21T11:09:44.477Z,9.83
2023-02-21T11:12:30.498Z,10.50
2023-02-21T11:15:19.849Z,8.00
2023-02-21T11:18:18.510Z,6.43
2023-02-21T11:20:49.950Z,8.43
2023-02-21T11:23:28.573Z,9.00
2023-02-21T11:26:09.496Z,6.20
2023-02-21T11:28:43.524Z,17.13
2023-02-21T11:31:29.988Z,11.17
2023-02-21T11:34:06.066Z,9.93
2023-02-21T11:36:39.691Z,6.97
2023-02-21T11:39:21.534Z,7.23
2023-02-21T11:41:54.577Z,4.13
2023-02-21T11:44:35.181Z,6.20
2023-02-21T11:47:17.326Z,5.80
2023-02-21T11:50:08.272Z,3.60
2023-02-21T11:52:46.135Z,2.87
2023-02-21T11:55:21.723Z,7.00
2023-02-21T11:58:04.131Z,3.47
2023-02-21T12:01:01.868Z,4.63
2023-02-21T12:04:13.536Z,5.60
2023-02-21T12:06:57.698Z,5.90
2023-02-21T12:09:39.323Z,3.20
2023-02-21T12:12:28.627Z,5.40
2023-02-21T12:15:20.024Z,4.80
2023-02-21T12:18:08.056Z,4.40
2023-02-21T12:21:07.236Z,4.50
2023-02-21T12:23:52.506Z,2.67
2023-02-21T12:26:49.089Z,3.27
2023-02-21T12:29:46.189Z,3.53
2023-02-21T12:32:52.073Z,4.57
2023-02-21T12:36:12.610Z,4.40
2023-02-21T12:39:06.074Z,4.70
2023-02-21T12:42:16.495Z,2.87
2023-02-21T12:45:05.240Z,4.40
2023-02-21T12:47:47.815Z,4.43
2023-02-21T12:50:24.173Z,3.30
2023-02-21T12:53:05.099Z,7.43
2023-02-21T12:55:44.281Z,4.67
2023-02-21T12:58:25.067Z,3.80
2023-02-21T13:01:01.420Z,3.03
2023-02-21T13:03:45.595Z,4.00
2023-02-21T13:06:30.522Z,5.50
2023-02-21T13:09:18.084Z,5.70
2023-02-21T13:12:03.419Z,4.13
2023-02-21T13:14:41.782Z,3.93
2023-02-21T13:17:17.018Z,4.87
2023-02-21T13:19:53.416Z,3.83
2023-02-21T13:22:44.233Z,4.90
2023-02-21T13:25:37.041Z,2.77
2023-02-21T13:28:18.301Z,2.60
2023-02-21T13:30:54.409Z,3.93
2023-02-21T13:33:32.328Z,3.67
2023-02-21T13:36:03.911Z,3.17
2023-02-21T13:38:35.544Z,2.70
2023-02-21T13:41:16.889Z,3.20
2023-02-21T13:43:56.423Z,4.80
2023-02-21T13:47:03.767Z,3.03
2023-02-21T13:49:54.219Z,4.53
2023-02-21T13:52:56.084Z,3.80
2023-02-21T13:55:32.058Z,2.87
2023-02-21T13:58:38.022Z,3.27
2023-02-21T14:01:42.719Z,2.33
2023-02-21T14:05:04.025Z,6.53
2023-02-21T14:08:03.690Z,4.63
2023-02-21T14:10:41.212Z,5.93
2023-02-21T14:13:25.347Z,4.03
2023-02-21T14:16:02.437Z,3.43
2023-02-21T14:18:43.786Z,2.80
2023-02-21T14:21:25.315Z,2.27
2023-02-21T14:24:04.056Z,2.90
2023-02-21T14:26:46.133Z,4.60
2023-02-21T14:29:37.611Z,2.30
2023-02-21T14:32:37.940Z,3.37
2023-02-21T14:35:30.800Z,2.30
2023-02-21T14:38:05.242Z,6.80
2023-02-21T14:40:57.792Z,3.13
2023-02-21T14:44:01.221Z,3.13
2023-02-21T14:47:17.197Z,2.23
2023-02-21T14:50:13.086Z,2.53
2023-02-21T14:53:31.586Z,2.90
2023-02-21T14:56:59.040Z,2.50
2023-02-21T14:59:56.634Z,3.30
2023-02-21T15:02:37.233Z,4.10
2023-02-21T15:05:20.655Z,4.30
2023-02-21T15:08:03.834Z,2.87
2023-02-21T15:10:42.776Z,2.60
2023-02-21T15:13:29.625Z,2.73
2023-02-21T15:16:04.824Z,5.73
2023-02-21T15:18:38.157Z,3.77
2023-02-21T15:21:19.382Z,3.37
2023-02-21T15:24:02.153Z,2.77
2023-02-21T15:26:34.759Z,4.10
2023-02-21T15:29:13.962Z,3.53
2023-02-21T15:31:51.312Z,3.50
2023-02-21T15:34:24.647Z,4.10
2023-02-21T15:37:05.731Z,3.50
2023-02-21T15:39:39.583Z,3.50
2023-02-21T15:42:14.675Z,3.17
2023-02-21T15:44:53.862Z,2.83
2023-02-21T15:47:27.160Z,2.87
2023-02-21T15:50:08.433Z,7.53
2023-02-21T15:52:41.510Z,3.13
2023-02-21T15:55:31.909Z,3.47
2023-02-21T15:58:06.710Z,3.70
2023-02-21T16:00:42.132Z,3.87
2023-02-21T16:03:36.505Z,5.43
2023-02-21T16:06:25.260Z,3.23
2023-02-21T16:09:06.632Z,3.20
2023-02-21T16:11:49.105Z,4.93
2023-02-21T16:14:23.834Z,5.33
2023-02-21T16:17:11.006Z,5.10
2023-02-21T16:19:41.668Z,4.47
2023-02-21T16:22:26.036Z,4.60
2023-02-21T16:25:18.764Z,4.97
2023-02-21T16:27:53.506Z,2.80
2023-02-21T16:30:27.443Z,3.23
2023-02-21T16:33:07.094Z,5.47
2023-02-21T16:35:37.285Z,3.43
2023-02-21T16:38:09.177Z,4.60
2023-02-21T16:40:39.762Z,3.30
2023-02-21T16:43:09.890Z,5.43
2023-02-21T16:45:39.914Z,5.60
2023-02-21T16:48:21.701Z,13.67
2023-02-21T16:50:53.668Z,5.03
2023-02-21T16:53:25.338Z,5.33
2023-02-21T16:55:55.821Z,3.57
2023-02-21T16:58:32.522Z,5.07
2023-02-21T17:01:07.481Z,8.30
2023-02-21T17:03:40.916Z,3.27
2023-02-21T17:06:17.693Z,3.80
2023-02-21T17:08:47.806Z,4.03
2023-02-21T17:11:18.090Z,4.50
2023-02-21T17:13:48.646Z,6.13
2023-02-21T17:16:18.791Z,11.87
2023-02-21T17:18:51.591Z,4.13
2023-02-21T17:21:21.571Z,4.87
2023-02-21T17:23:51.586Z,13.23
2023-02-21T17:26:22.283Z,5.93
2023-02-21T17:28:52.396Z,5.43
2023-02-21T17:31:22.441Z,6.03
2023-02-21T17:33:55.127Z,8.27
2023-02-21T17:36:28.857Z,8.97
2023-02-21T17:38:59.939Z,6.27
2023-02-21T17:41:30.057Z,6.40
2023-02-21T17:44:00.173Z,13.23
2023-02-21T17:46:32.799Z,10.93
2023-02-21T17:49:05.608Z,22.70
2023-02-21T17:51:35.608Z,7.63
2023-02-21T17:54:05.746Z,7.90
2023-02-21T17:56:35.961Z,12.07
2023-02-21T17:59:05.963Z,13.83
2023-02-21T18:01:36.163Z,7.70
2023-02-21T18:04:09.169Z,14.33
2023-02-21T18:06:39.937Z,11.20
2023-02-21T18:09:11.144Z,11.23
2023-02-21T18:11:41.800Z,13.40
2023-02-21T18:14:11.852Z,11.97
2023-02-21T18:16:42.252Z,11.97
2023-02-21T18:19:15.121Z,9.23
2023-02-21T18:21:47.790Z,17.07
2023-02-21T18:24:21.580Z,17.70
2023-02-21T18:26:52.210Z,16.40
2023-02-21T18:29:22.229Z,12.83
2023-02-21T18:31:54.892Z,13.27
2023-02-21T18:34:27.899Z,12.40
2023-02-21T18:36:58.267Z,13.53
2023-02-21T18:39:28.820Z,21.93
2023-02-21T18:41:58.865Z,21.37
2023-02-21T18:44:28.821Z,11.20
2023-02-21T18:46:59.714Z,11.90
2023-02-21T18:49:38.569Z,15.43
2023-02-21T18:52:10.384Z,11.53
2023-02-21T18:54:46.206Z,16.67
2023-02-21T18:57:16.604Z,13.00
2023-02-21T18:59:47.305Z,12.10
2023-02-21T19:02:20.719Z,17.63
2023-02-21T19:04:53.843Z,11.77
2023-02-21T19:07:23.812Z,11.33
2023-02-21T19:09:54.605Z,20.60
2023-02-21T19:12:24.819Z,12.60
2023-02-21T19:14:54.946Z,14.73
2023-02-21T19:17:24.937Z,15.10
2023-02-21T19:19:57.498Z,13.80
2023-02-21T19:22:27.479Z,10.90
2023-02-21T19:24:57.518Z,18.63
2023-02-21T19:27:27.941Z,10.83
2023-02-21T19:29:58.127Z,16.27
2023-02-21T19:32:28.539Z,11.70
2023-02-21T19:35:01.131Z,10.60
2023-02-21T19:37:31.171Z,12.40
2023-02-21T19:40:01.252Z,15.00
2023-02-21T19:42:31.315Z,13.00
2023-02-21T19:45:01.299Z,17.40
2023-02-21T19:47:31.320Z,16.37
2023-02-21T19:50:03.931Z,20.60
2023-02-21T19:52:33.978Z,14.90
2023-02-21T19:55:04.096Z,13.77
2023-02-21T19:57:34.187Z,12.13
2023-02-21T20:00:06.222Z,16.33
2023-02-21T20:02:36.194Z,13.73
2023-02-21T20:05:13.979Z,15.30
2023-02-21T20:07:44.219Z,13.20
2023-02-21T20:10:18.011Z,21.17
2023-02-21T20:12:48.258Z,15.37
2023-02-21T20:15:18.254Z,23.70
2023-02-21T20:17:48.346Z,17.47
2023-02-21T20:20:21.211Z,11.43
2023-02-21T20:22:51.246Z,20.67
2023-02-21T20:25:21.316Z,26.80
2023-02-21T20:27:51.466Z,22.40
2023-02-21T20:30:23.967Z,19.90
2023-02-21T20:32:55.099Z,18.77
2023-02-21T20:35:28.047Z,24.37
2023-02-21T20:38:00.971Z,15.70
2023-02-21T20:40:31.303Z,17.20
2023-02-21T20:43:02.000Z,20.53
2023-02-21T20:45:33.223Z,15.40
2023-02-21T20:48:03.297Z,31.73
2023-02-21T20:50:36.032Z,24.10
2023-02-21T20:53:06.837Z,23.17
2023-02-21T20:55:37.464Z,18.63
2023-02-21T20:58:10.547Z,13.60
2023-02-21T21:00:40.642Z,18.47
2023-02-21T21:03:15.317Z,14.43
2023-02-21T21:05:50.691Z,12.47
2023-02-21T21:08:20.828Z,16.80
2023-02-21T21:10:51.189Z,13.97
2023-02-21T21:13:21.341Z,15.37
2023-02-21T21:15:51.345Z,28.90
2023-02-21T21:18:21.427Z,16.77
2023-02-21T21:20:54.028Z,21.33
2023-02-21T21:23:25.985Z,24.00
2023-02-21T21:25:56.847Z,16.20
2023-02-21T21:28:26.840Z,17.17
2023-02-21T21:30:59.299Z,17.97
2023-02-21T21:33:29.773Z,20.43
2023-02-21T21:36:03.516Z,15.10
2023-02-21T21:38:33.537Z,20.50
2023-02-21T21:41:13.226Z,23.13
2023-02-21T21:43:44.333Z,29.90
2023-02-21T21:46:16.572Z,22.77
2023-02-21T21:48:47.975Z,24.07
2023-02-21T21:51:20.655Z,16.60
2023-02-21T21:53:50.601Z,18.43
2023-02-21T21:56:27.422Z,27.90
2023-02-21T21:58:57.417Z,16.40
2023-02-21T22:01:27.398Z,20.40
2023-02-21T22:03:57.699Z,21.93
2023-02-21T22:06:30.381Z,21.00
2023-02-21T22:09:01.776Z,20.17
2023-02-21T22:11:31.729Z,16.00
2023-02-21T22:14:02.150Z,27.60
2023-02-21T22:16:38.559Z,32.73
2023-02-21T22:19:08.886Z,19.07
2023-02-21T22:21:43.137Z,16.30
2023-02-21T22:24:15.335Z,18.97
2023-02-21T22:26:47.305Z,20.77
2023-02-21T22:29:19.594Z,25.77
2023-02-21T22:31:52.477Z,29.57
2023-02-21T22:34:25.791Z,24.23
2023-02-21T22:37:00.446Z,22.53
2023-02-21T22:39:30.918Z,17.00
2023-02-21T22:42:00.846Z,20.43
2023-02-21T22:44:31.008Z,16.83
2023-02-21T22:47:01.297Z,24.03
2023-02-21T22:49:31.914Z,21.60
2023-02-21T22:52:04.707Z,21.37
2023-02-21T22:54:34.997Z,23.00
2023-02-21T22:57:07.326Z,24.20
2023-02-21T22:59:37.649Z,17.03
2023-02-21T23:02:07.699Z,16.57
2023-02-21T23:04:38.350Z,19.03
2023-02-21T23:07:11.139Z,24.00
2023-02-21T23:09:41.532Z,17.50
2023-02-21T23:12:15.097Z,14.83
2023-02-21T23:14:48.106Z,15.73
2023-02-21T23:17:18.141Z,24.00
2023-02-21T23:19:48.101Z,20.07
2023-02-21T23:22:20.791Z,18.43
2023-02-21T23:24:50.875Z,21.27
2023-02-21T23:27:21.149Z,13.90
2023-02-21T23:29:51.149Z,18.67
2023-02-21T23:32:21.304Z,25.37
2023-02-21T23:34:51.431Z,19.07
2023-02-21T23:37:24.016Z,19.20
2023-02-21T23:39:53.996Z,17.73
2023-02-21T23:42:24.002Z,18.37
2023-02-21T23:44:54.476Z,21.20
2023-02-21T23:47:24.523Z,18.13
2023-02-21T23:49:58.159Z,19.47
2023-02-21T23:52:30.853Z,18.00
2023-02-21T23:55:00.920Z,17.20
2023-02-21T23:57:31.618Z,18.53
